createdAt,value
2023-01-30T00:01:07.111Z,87.27
2023-01-30T00:03:34.315Z,87.10
2023-01-30T00:06:00.835Z,87.15
2023-01-30T00:08:27.350Z,86.88
2023-01-30T00:10:53.740Z,87.31
2023-01-30T00:13:20.331Z,87.37
2023-01-30T00:15:47.986Z,87.44
2023-01-30T00:18:14.616Z,87.61
2023-01-30T00:20:41.080Z,87.53
2023-01-30T00:23:07.528Z,87.42
2023-01-30T00:25:34.136Z,87.46
2023-01-30T00:28:02.004Z,87.71
2023-01-30T00:30:29.373Z,87.65
2023-01-30T00:32:56.986Z,87.70
2023-01-30T00:35:28.377Z,87.76
2023-01-30T00:37:56.552Z,87.90
2023-01-30T00:40:22.981Z,87.83
2023-01-30T00:43:08.172Z,87.82
2023-01-30T00:45:53.516Z,87.86
2023-01-30T00:48:20.279Z,87.75
2023-01-30T00:50:46.885Z,87.87
2023-01-30T00:53:15.271Z,87.43
2023-01-30T00:55:43.187Z,87.77
2023-01-30T00:58:25.141Z,88.35
2023-01-30T01:00:52.586Z,87.55
2023-01-30T01:03:19.790Z,87.93
2023-01-30T01:05:46.464Z,87.65
2023-01-30T01:08:12.833Z,87.64
2023-01-30T01:10:39.409Z,87.59
2023-01-30T01:13:06.935Z,87.81
2023-01-30T01:15:33.926Z,87.78
2023-01-30T01:18:00.498Z,88.04
2023-01-30T01:20:27.096Z,87.80
2023-01-30T01:22:55.314Z,87.86
2023-01-30T01:25:23.220Z,87.52
2023-01-30T01:27:50.465Z,87.87
2023-01-30T01:30:18.023Z,87.84
2023-01-30T01:32:44.764Z,87.97
2023-01-30T01:35:11.274Z,87.91
2023-01-30T01:37:38.120Z,87.96
2023-01-30T01:40:24.744Z,88.42
2023-01-30T01:42:51.416Z,88.35
2023-01-30T01:45:24.635Z,88.30
2023-01-30T01:47:54.352Z,89.33
2023-01-30T01:50:51.331Z,90.33
2023-01-30T01:53:24.183Z,89.88
2023-01-30T01:55:54.463Z,90.18
2023-01-30T01:58:25.587Z,90.48
2023-01-30T02:00:52.735Z,89.86
2023-01-30T02:03:23.954Z,90.50
2023-01-30T02:05:53.064Z,90.88
2023-01-30T02:08:27.221Z,90.94
2023-01-30T02:11:19.897Z,91.56
2023-01-30T02:13:47.390Z,91.35
2023-01-30T02:16:14.130Z,91.30
2023-01-30T02:18:43.256Z,91.10
2023-01-30T02:21:31.799Z,91.54
2023-01-30T02:24:45.858Z,91.25
2023-01-30T02:27:23.905Z,91.74
2023-01-30T02:30:05.743Z,91.63
2023-01-30T02:32:38.171Z,91.88
2023-01-30T02:35:11.268Z,91.69
2023-01-30T02:38:03.696Z,91.77
2023-01-30T02:40:42.166Z,92.20
2023-01-30T02:43:21.759Z,92.82
2023-01-30T02:45:56.196Z,93.22
2023-01-30T02:48:35.676Z,92.84
2023-01-30T02:51:07.330Z,93.26
2023-01-30T02:53:35.694Z,92.97
2023-01-30T02:56:02.271Z,93.11
2023-01-30T02:58:37.612Z,93.17
2023-01-30T03:01:21.047Z,93.30
2023-01-30T03:03:56.421Z,93.68
2023-01-30T03:06:58.626Z,94.04
2023-01-30T03:09:43.514Z,93.81
2023-01-30T03:12:20.129Z,93.01
2023-01-30T03:15:00.492Z,93.63
2023-01-30T03:17:28.448Z,92.72
2023-01-30T03:19:56.177Z,92.79
2023-01-30T03:22:22.824Z,93.02
2023-01-30T03:24:51.589Z,93.38
2023-01-30T03:27:19.592Z,93.14
2023-01-30T03:29:46.132Z,93.42
2023-01-30T03:32:12.604Z,93.07
2023-01-30T03:34:39.012Z,93.12
2023-01-30T03:37:06.053Z,92.87
2023-01-30T03:39:32.739Z,93.00
2023-01-30T03:41:59.449Z,92.98
2023-01-30T03:44:25.937Z,92.93
2023-01-30T03:46:52.522Z,92.89
2023-01-30T03:49:19.141Z,93.06
2023-01-30T03:51:45.878Z,93.29
2023-01-30T03:54:12.373Z,93.13
2023-01-30T03:56:38.778Z,93.59
2023-01-30T03:59:05.255Z,93.35
2023-01-30T04:01:34.915Z,93.75
2023-01-30T04:04:01.317Z,93.63
2023-01-30T04:06:27.822Z,93.35
2023-01-30T04:08:54.497Z,93.52
2023-01-30T04:11:21.709Z,93.80
2023-01-30T04:13:48.162Z,93.41
2023-01-30T04:16:24.087Z,93.87
2023-01-30T04:18:50.921Z,93.02
2023-01-30T04:21:18.156Z,93.12
2023-01-30T04:23:44.595Z,92.45
2023-01-30T04:26:11.932Z,92.34
2023-01-30T04:28:38.567Z,91.85
2023-01-30T04:31:05.446Z,91.52
2023-01-30T04:33:35.886Z,91.41
2023-01-30T04:36:04.157Z,91.40
2023-01-30T04:38:32.047Z,91.27
2023-01-30T04:40:59.670Z,91.41
2023-01-30T04:43:27.779Z,91.32
2023-01-30T04:45:54.968Z,91.22
2023-01-30T04:48:23.547Z,91.71
2023-01-30T04:50:51.933Z,91.73
2023-01-30T04:53:20.345Z,91.81
2023-01-30T04:55:47.577Z,92.16
2023-01-30T04:58:14.180Z,92.01
2023-01-30T05:00:40.625Z,91.80
2023-01-30T05:03:07.138Z,91.61
2023-01-30T05:05:34.388Z,91.43
2023-01-30T05:08:01.799Z,91.24
2023-01-30T05:10:28.324Z,91.20
2023-01-30T05:12:54.821Z,91.27
2023-01-30T05:15:21.341Z,91.36
2023-01-30T05:17:47.723Z,90.88
2023-01-30T05:20:14.433Z,90.83
2023-01-30T05:22:40.905Z,90.64
2023-01-30T05:25:07.793Z,90.31
2023-01-30T05:27:34.274Z,90.33
2023-01-30T05:30:00.974Z,89.74
2023-01-30T05:32:30.377Z,89.87
2023-01-30T05:34:56.807Z,89.38
2023-01-30T05:37:24.382Z,89.32
2023-01-30T05:39:50.848Z,89.40
2023-01-30T05:42:17.514Z,89.43
2023-01-30T05:44:43.940Z,88.94
2023-01-30T05:47:10.378Z,89.00
2023-01-30T05:49:36.767Z,88.99
2023-01-30T05:52:03.345Z,89.00
2023-01-30T05:54:29.833Z,88.82
2023-01-30T05:56:56.237Z,88.64
2023-01-30T05:59:22.791Z,88.43
2023-01-30T06:01:49.403Z,88.03
2023-01-30T06:04:15.961Z,88.30
2023-01-30T06:06:42.431Z,88.05
2023-01-30T06:09:10.782Z,87.72
2023-01-30T06:11:37.167Z,87.63
2023-01-30T06:14:03.573Z,87.72
2023-01-30T06:16:30.030Z,87.27
2023-01-30T06:18:56.435Z,87.41
2023-01-30T06:21:22.905Z,87.04
2023-01-30T06:23:49.674Z,87.06
2023-01-30T06:26:16.311Z,87.05
2023-01-30T06:28:42.831Z,86.91
2023-01-30T06:31:09.392Z,87.32
2023-01-30T06:33:35.966Z,87.23
2023-01-30T06:36:02.425Z,87.42
2023-01-30T06:38:29.001Z,87.48
2023-01-30T06:40:55.406Z,87.67
2023-01-30T06:43:21.799Z,87.60
2023-01-30T06:45:48.253Z,88.01
2023-01-30T06:48:14.867Z,88.01
2023-01-30T06:50:41.296Z,87.94
2023-01-30T06:53:08.435Z,87.58
2023-01-30T06:55:35.721Z,87.53
2023-01-30T06:58:06.407Z,87.22
2023-01-30T07:00:34.143Z,87.20
2023-01-30T07:03:00.985Z,86.71
2023-01-30T07:05:29.034Z,86.83
2023-01-30T07:07:55.486Z,86.42
2023-01-30T07:10:22.100Z,86.57
2023-01-30T07:12:48.625Z,86.58
2023-01-30T07:15:15.155Z,86.53
2023-01-30T07:17:42.305Z,86.62
2023-01-30T07:20:10.294Z,86.30
2023-01-30T07:22:36.725Z,85.70
2023-01-30T07:25:03.626Z,85.66
2023-01-30T07:27:30.115Z,85.14
2023-01-30T07:29:56.543Z,85.29
2023-01-30T07:32:22.993Z,85.25
2023-01-30T07:34:49.434Z,85.32
2023-01-30T07:37:16.131Z,85.35
2023-01-30T07:39:42.609Z,85.45
2023-01-30T07:42:09.206Z,85.34
2023-01-30T07:44:35.672Z,85.73
2023-01-30T07:47:02.257Z,85.58
2023-01-30T07:49:28.935Z,85.95
2023-01-30T07:51:55.406Z,86.32
2023-01-30T07:54:22.113Z,86.23
2023-01-30T07:56:48.588Z,86.27
2023-01-30T07:59:15.002Z,86.12
2023-01-30T08:01:41.374Z,85.81
2023-01-30T08:04:07.777Z,85.35
2023-01-30T08:06:38.984Z,84.76
2023-01-30T08:09:06.741Z,84.37
2023-01-30T08:11:33.799Z,84.26
2023-01-30T08:14:00.315Z,83.68
2023-01-30T08:16:26.897Z,83.12
2023-01-30T08:18:53.320Z,82.75
2023-01-30T08:21:19.731Z,82.05
2023-01-30T08:23:46.451Z,81.75
2023-01-30T08:26:13.099Z,81.43
2023-01-30T08:28:40.245Z,81.71
2023-01-30T08:31:12.028Z,81.58
2023-01-30T08:33:38.875Z,81.17
2023-01-30T08:36:05.872Z,81.32
2023-01-30T08:38:32.328Z,80.70
2023-01-30T08:41:00.997Z,80.83
2023-01-30T08:43:27.458Z,80.45
2023-01-30T08:45:54.529Z,80.32
2023-01-30T08:48:21.036Z,80.02
2023-01-30T08:50:47.466Z,80.02
2023-01-30T08:53:13.966Z,79.65
2023-01-30T08:55:40.408Z,79.63
2023-01-30T08:58:06.984Z,79.60
2023-01-30T09:00:33.383Z,79.77
2023-01-30T09:03:00.515Z,79.41
2023-01-30T09:05:27.020Z,78.54
2023-01-30T09:07:53.553Z,77.26
2023-01-30T09:10:20.429Z,77.45
2023-01-30T09:12:47.093Z,76.99
2023-01-30T09:15:13.685Z,76.51
2023-01-30T09:17:40.217Z,76.29
2023-01-30T09:20:09.035Z,75.54
2023-01-30T09:22:35.426Z,75.65
2023-01-30T09:25:02.166Z,74.49
2023-01-30T09:27:28.631Z,73.66
2023-01-30T09:29:55.118Z,73.93
2023-01-30T09:32:21.573Z,74.04
2023-01-30T09:34:48.004Z,74.65
2023-01-30T09:37:14.656Z,74.93
2023-01-30T09:39:41.084Z,74.56
2023-01-30T09:42:22.500Z,74.67
2023-01-30T09:45:00.962Z,73.66
2023-01-30T09:48:01.770Z,73.36
2023-01-30T09:50:47.461Z,72.59
2023-01-30T09:53:45.280Z,73.13
2023-01-30T09:56:11.917Z,72.74
2023-01-30T09:58:58.164Z,72.89
2023-01-30T10:01:32.587Z,73.68
2023-01-30T10:04:12.059Z,75.02
2023-01-30T10:06:51.115Z,76.01
2023-01-30T10:09:28.585Z,77.03
2023-01-30T10:12:11.557Z,77.68
2023-01-30T10:14:51.233Z,78.23
2023-01-30T10:17:43.588Z,77.87
2023-01-30T10:20:33.796Z,79.73
2023-01-30T10:23:06.021Z,80.01
2023-01-30T10:25:34.586Z,79.88
2023-01-30T10:28:10.160Z,80.79
2023-01-30T10:30:37.106Z,80.88
2023-01-30T10:33:28.196Z,82.37
2023-01-30T10:36:18.508Z,83.11
2023-01-30T10:38:49.212Z,82.86
2023-01-30T10:41:33.564Z,84.94
2023-01-30T10:44:04.561Z,85.92
2023-01-30T10:47:16.964Z,86.32
2023-01-30T10:49:57.497Z,85.69
2023-01-30T10:53:11.364Z,85.29
2023-01-30T10:55:57.485Z,84.26
2023-01-30T10:58:36.528Z,84.28
2023-01-30T11:01:14.800Z,83.57
2023-01-30T11:03:53.275Z,82.59
2023-01-30T11:06:24.289Z,82.59
2023-01-30T11:08:52.752Z,82.33
2023-01-30T11:11:41.262Z,82.97
2023-01-30T11:14:10.445Z,83.15
2023-01-30T11:16:53.939Z,83.78
2023-01-30T11:19:24.747Z,84.77
2023-01-30T11:21:53.563Z,85.30
2023-01-30T11:24:24.321Z,85.21
2023-01-30T11:26:52.462Z,85.78
2023-01-30T11:29:31.267Z,86.68
2023-01-30T11:32:04.029Z,86.55
2023-01-30T11:34:30.782Z,86.01
2023-01-30T11:37:24.392Z,87.13
2023-01-30T11:39:52.578Z,86.21
2023-01-30T11:42:20.595Z,86.70
2023-01-30T11:44:47.030Z,87.24
2023-01-30T11:47:27.311Z,87.59
2023-01-30T11:50:30.882Z,87.32
2023-01-30T11:52:45.856Z,86.34
2023-01-30T11:55:18.622Z,86.58
2023-01-30T11:57:50.565Z,86.60
2023-01-30T12:00:20.530Z,87.03
2023-01-30T12:02:48.286Z,86.96
2023-01-30T12:05:26.118Z,87.07
2023-01-30T12:07:53.056Z,86.60
2023-01-30T12:10:30.828Z,87.19
2023-01-30T12:13:02.580Z,86.85
2023-01-30T12:15:34.416Z,86.22
2023-01-30T12:18:16.324Z,85.48
2023-01-30T12:20:48.515Z,84.35
2023-01-30T12:23:44.724Z,82.89
2023-01-30T12:26:21.934Z,82.63
2023-01-30T12:28:56.503Z,81.80
2023-01-30T12:31:31.516Z,83.10
2023-01-30T12:33:57.959Z,84.28
2023-01-30T12:36:30.930Z,85.05
2023-01-30T12:39:18.511Z,85.57
2023-01-30T12:42:00.106Z,86.55
2023-01-30T12:44:55.386Z,86.56
2023-01-30T12:47:49.192Z,85.15
2023-01-30T12:50:49.742Z,84.98
2023-01-30T12:53:42.208Z,84.39
2023-01-30T12:56:23.144Z,84.48
2023-01-30T12:58:59.147Z,84.30
2023-01-30T13:01:53.438Z,84.74
2023-01-30T13:04:56.312Z,84.83
2023-01-30T13:07:55.753Z,85.11
2023-01-30T13:10:35.282Z,84.61
2023-01-30T13:13:11.851Z,83.61
2023-01-30T13:16:01.528Z,82.92
2023-01-30T13:18:49.385Z,81.93
2023-01-30T13:21:21.149Z,80.39
2023-01-30T13:24:01.322Z,79.66
2023-01-30T13:26:32.064Z,79.58
2023-01-30T13:29:04.137Z,78.24
2023-01-30T13:31:35.977Z,77.89
2023-01-30T13:34:10.628Z,78.08
2023-01-30T13:36:42.034Z,79.10
2023-01-30T13:39:19.615Z,79.86
2023-01-30T13:41:52.928Z,79.96
2023-01-30T13:44:27.709Z,80.29
2023-01-30T13:46:55.361Z,79.38
2023-01-30T13:49:42.439Z,79.26
2023-01-30T13:52:15.504Z,78.18
2023-01-30T13:54:51.132Z,78.27
2023-01-30T13:57:25.591Z,77.38
2023-01-30T14:00:18.858Z,77.47
2023-01-30T14:03:04.083Z,77.19
2023-01-30T14:05:52.722Z,76.89
2023-01-30T14:08:22.748Z,76.59
2023-01-30T14:10:50.195Z,76.89
2023-01-30T14:13:17.677Z,77.17
2023-01-30T14:16:02.643Z,76.70
2023-01-30T14:18:34.077Z,77.24
2023-01-30T14:21:21.222Z,77.50
2023-01-30T14:24:22.202Z,77.10
2023-01-30T14:26:48.594Z,76.50
2023-01-30T14:29:42.734Z,77.02
2023-01-30T14:32:13.036Z,76.41
2023-01-30T14:34:44.187Z,76.34
2023-01-30T14:37:44.924Z,76.00
2023-01-30T14:40:31.074Z,75.80
2023-01-30T14:43:12.719Z,74.61
2023-01-30T14:45:41.953Z,74.41
2023-01-30T14:48:45.975Z,73.42
2023-01-30T14:51:34.803Z,73.56
2023-01-30T14:54:13.897Z,72.40
2023-01-30T14:56:49.410Z,72.12
2023-01-30T14:59:15.728Z,71.56
2023-01-30T15:01:59.193Z,71.55
2023-01-30T15:04:33.413Z,70.65
2023-01-30T15:07:05.733Z,70.28
2023-01-30T15:09:32.897Z,70.15
2023-01-30T15:12:30.111Z,70.49
2023-01-30T15:15:05.440Z,69.98
2023-01-30T15:17:48.539Z,70.10
2023-01-30T15:20:27.416Z,68.98
2023-01-30T15:23:07.526Z,69.13
2023-01-30T15:25:47.120Z,68.69
2023-01-30T15:28:34.571Z,69.12
2023-01-30T15:31:13.225Z,68.48
2023-01-30T15:33:54.581Z,68.88
2023-01-30T15:36:31.883Z,68.95
2023-01-30T15:39:03.051Z,68.72
2023-01-30T15:41:32.165Z,68.76
2023-01-30T15:44:01.306Z,68.48
2023-01-30T15:46:43.841Z,68.73
2023-01-30T15:49:43.632Z,69.06
2023-01-30T15:52:18.327Z,68.98
2023-01-30T15:54:51.285Z,68.47
2023-01-30T15:57:25.864Z,68.50
2023-01-30T15:59:54.520Z,68.44
2023-01-30T16:02:36.092Z,69.16
2023-01-30T16:05:17.614Z,69.29
2023-01-30T16:07:46.090Z,69.63
2023-01-30T16:10:16.166Z,69.77
2023-01-30T16:12:43.387Z,70.28
2023-01-30T16:15:34.970Z,70.22
2023-01-30T16:18:06.426Z,70.28
2023-01-30T16:21:00.820Z,70.50
2023-01-30T16:23:50.541Z,70.84
2023-01-30T16:26:18.711Z,70.87
2023-01-30T16:28:45.304Z,71.20
2023-01-30T16:31:11.999Z,71.15
2023-01-30T16:33:38.689Z,71.29
2023-01-30T16:36:20.395Z,71.23
2023-01-30T16:38:51.428Z,70.96
2023-01-30T16:41:33.318Z,71.19
2023-01-30T16:44:22.299Z,70.94
2023-01-30T16:46:51.569Z,70.51
2023-01-30T16:49:29.241Z,70.78
2023-01-30T16:52:25.682Z,71.04
2023-01-30T16:54:55.705Z,70.66
2023-01-30T16:57:31.607Z,70.25
2023-01-30T16:59:59.065Z,70.35
2023-01-30T17:02:40.295Z,70.28
2023-01-30T17:05:21.277Z,70.13
2023-01-30T17:07:49.393Z,69.46
2023-01-30T17:10:41.579Z,69.99
2023-01-30T17:13:32.032Z,70.25
2023-01-30T17:16:23.474Z,69.72
2023-01-30T17:18:51.912Z,69.80
2023-01-30T17:21:20.253Z,70.14
2023-01-30T17:24:05.569Z,70.55
2023-01-30T17:26:32.965Z,70.59
2023-01-30T17:28:59.708Z,70.51
2023-01-30T17:31:26.961Z,70.16
2023-01-30T17:33:53.618Z,70.19
2023-01-30T17:36:24.337Z,70.40
2023-01-30T17:38:51.094Z,70.28
2023-01-30T17:41:20.692Z,70.47
2023-01-30T17:43:49.078Z,69.82
2023-01-30T17:46:16.670Z,69.82
2023-01-30T17:48:43.485Z,69.73
2023-01-30T17:51:12.351Z,69.06
2023-01-30T17:53:38.979Z,68.77
2023-01-30T17:56:11.855Z,68.73
2023-01-30T17:58:38.249Z,68.31
2023-01-30T18:01:04.785Z,68.61
2023-01-30T18:03:31.169Z,67.98
2023-01-30T18:05:57.596Z,68.37
2023-01-30T18:08:23.974Z,68.39
2023-01-30T18:10:50.405Z,68.56
2023-01-30T18:13:16.820Z,68.64
2023-01-30T18:15:43.242Z,68.72
2023-01-30T18:18:15.951Z,68.90
2023-01-30T18:20:42.345Z,68.71
2023-01-30T18:23:08.699Z,69.00
2023-01-30T18:25:35.128Z,68.80
2023-01-30T18:28:02.918Z,69.15
2023-01-30T18:30:29.306Z,69.39
2023-01-30T18:32:55.697Z,69.32
2023-01-30T18:35:22.997Z,69.45
2023-01-30T18:37:50.229Z,69.64
2023-01-30T18:40:17.821Z,69.48
2023-01-30T18:42:44.721Z,69.59
2023-01-30T18:45:11.400Z,69.42
2023-01-30T18:47:37.990Z,69.27
2023-01-30T18:50:05.451Z,69.06
2023-01-30T18:52:32.044Z,68.38
2023-01-30T18:54:58.483Z,68.12
2023-01-30T18:57:25.086Z,68.28
2023-01-30T18:59:51.939Z,68.08
2023-01-30T19:02:18.390Z,68.02
2023-01-30T19:04:45.018Z,67.33
2023-01-30T19:07:11.519Z,66.83
2023-01-30T19:09:38.008Z,66.92
2023-01-30T19:12:23.304Z,66.96
2023-01-30T19:14:49.733Z,66.85
2023-01-30T19:17:17.196Z,66.55
2023-01-30T19:19:43.933Z,66.78
2023-01-30T19:22:10.423Z,66.54
2023-01-30T19:24:36.837Z,66.83
2023-01-30T19:27:05.164Z,66.92
2023-01-30T19:29:31.558Z,67.36
2023-01-30T19:31:58.016Z,67.30
2023-01-30T19:34:24.499Z,67.66
2023-01-30T19:36:50.866Z,67.94
2023-01-30T19:39:17.509Z,68.49
2023-01-30T19:41:43.930Z,68.74
2023-01-30T19:44:11.677Z,69.15
2023-01-30T19:46:38.090Z,69.37
2023-01-30T19:49:06.002Z,69.73
2023-01-30T19:51:35.405Z,69.92
2023-01-30T19:54:05.335Z,70.00
2023-01-30T19:56:32.662Z,69.97
2023-01-30T19:59:00.867Z,70.04
2023-01-30T20:01:30.494Z,69.91
2023-01-30T20:03:57.711Z,69.64
2023-01-30T20:06:26.716Z,69.91
2023-01-30T20:08:56.178Z,69.62
2023-01-30T20:11:22.688Z,70.04
2023-01-30T20:13:50.529Z,70.18
2023-01-30T20:16:22.259Z,70.94
2023-01-30T20:18:53.904Z,70.68
2023-01-30T20:21:21.541Z,70.75
2023-01-30T20:23:48.776Z,70.69
2023-01-30T20:26:29.989Z,70.52
2023-01-30T20:28:57.556Z,70.30
2023-01-30T20:31:27.082Z,70.15
2023-01-30T20:33:57.428Z,69.90
2023-01-30T20:36:25.229Z,69.98
2023-01-30T20:38:53.015Z,69.78
2023-01-30T20:41:22.479Z,69.92
2023-01-30T20:43:51.984Z,69.83
2023-01-30T20:46:29.427Z,69.86
2023-01-30T20:48:57.626Z,69.44
2023-01-30T20:51:27.796Z,69.28
2023-01-30T20:53:56.263Z,69.72
2023-01-30T20:56:24.208Z,69.37
2023-01-30T20:58:50.753Z,69.22
2023-01-30T21:01:22.781Z,69.91
2023-01-30T21:03:52.257Z,69.21
2023-01-30T21:06:37.249Z,69.45
2023-01-30T21:09:12.860Z,69.41
2023-01-30T21:11:39.843Z,69.14
2023-01-30T21:14:06.581Z,69.40
2023-01-30T21:16:35.426Z,69.28
2023-01-30T21:19:05.428Z,69.33
2023-01-30T21:21:41.342Z,69.71
2023-01-30T21:24:13.897Z,69.61
2023-01-30T21:26:44.541Z,69.77
2023-01-30T21:29:12.021Z,69.92
2023-01-30T21:31:39.217Z,70.12
2023-01-30T21:34:06.124Z,69.95
2023-01-30T21:36:32.826Z,70.09
2023-01-30T21:39:17.870Z,70.22
2023-01-30T21:41:51.951Z,70.46
2023-01-30T21:44:19.900Z,70.51
2023-01-30T21:46:48.094Z,70.81
2023-01-30T21:49:15.967Z,70.89
2023-01-30T21:51:48.070Z,71.08
2023-01-30T21:54:15.828Z,71.04
2023-01-30T21:56:42.663Z,71.15
2023-01-30T21:59:09.435Z,70.90
2023-01-30T22:01:37.927Z,71.19
2023-01-30T22:04:07.141Z,70.84
2023-01-30T22:06:33.532Z,70.88
2023-01-30T22:09:01.375Z,70.59
2023-01-30T22:11:29.084Z,70.51
2023-01-30T22:13:56.654Z,70.53
2023-01-30T22:16:26.347Z,70.45
2023-01-30T22:18:58.663Z,70.39
2023-01-30T22:21:28.472Z,69.84
2023-01-30T22:23:55.455Z,69.63
2023-01-30T22:26:24.073Z,70.09
2023-01-30T22:28:56.047Z,70.17
2023-01-30T22:31:23.503Z,69.84
2023-01-30T22:33:53.736Z,69.95
2023-01-30T22:36:23.040Z,69.37
2023-01-30T22:38:50.590Z,69.33
2023-01-30T22:41:19.743Z,69.14
2023-01-30T22:43:48.687Z,69.33
2023-01-30T22:46:16.857Z,69.14
2023-01-30T22:48:43.968Z,69.16
2023-01-30T22:51:13.944Z,69.31
2023-01-30T22:53:43.106Z,69.64
2023-01-30T22:56:20.683Z,69.75
2023-01-30T22:58:48.380Z,70.31
2023-01-30T23:01:19.413Z,70.61
2023-01-30T23:03:47.684Z,70.66
2023-01-30T23:06:16.620Z,70.86
2023-01-30T23:08:46.910Z,71.16
2023-01-30T23:11:15.205Z,71.16
2023-01-30T23:13:47.355Z,71.34
2023-01-30T23:16:14.968Z,71.78
2023-01-30T23:18:58.222Z,71.94
2023-01-30T23:21:37.087Z,72.49
2023-01-30T23:24:10.250Z,72.35
2023-01-30T23:26:39.884Z,72.42
2023-01-30T23:29:09.458Z,72.46
2023-01-30T23:31:37.056Z,72.36
2023-01-30T23:34:06.223Z,72.31
2023-01-30T23:36:33.670Z,72.46
2023-01-30T23:39:00.932Z,72.74
2023-01-30T23:41:30.213Z,72.74
2023-01-30T23:43:59.758Z,73.30
2023-01-30T23:46:32.208Z,73.54
2023-01-30T23:49:01.384Z,73.40
2023-01-30T23:51:29.938Z,73.58
2023-01-30T23:53:56.580Z,73.33
2023-01-30T23:56:25.196Z,73.50
2023-01-30T23:58:52.798Z,73.25
